NCAR-RAP Real-Time Weather Data

Output produced by METARs form (23 June 2018  19:39 UTC)
found at http://weather.rap.ucar.edu/surface/
 
RJOM 231212Z VRB02KT 5000 PRFG BR FEW003 BKN008 BKN015 19/18 Q1006 RMK 2ST003 5ST008 6CU015 A2971 FG SW
RJOM 231200Z 27003KT 4500 -SHRA BCFG BR FEW003 BKN007 BKN015 19/18 Q1006
RJOM 231149Z 29003KT 3200 -SHRA BCFG BR FEW003 BKN005 BKN015 19/19 Q1006 RMK 2ST003 5ST005 6CU015 A2971 FG ALL QUAD
RJOM 231135Z 28004KT 3000 -SHRA BCFG BR FEW003 BKN006 BKN015 19/19 Q1005 RMK 2ST003 5ST006 6CU015 A2970 FG ALL QUAD
RJOM 231127Z 27004KT 3000 -SHRA BR FEW005 SCT010 BKN015 19/19 Q1005 RMK 1ST005 3ST010 6CU015 A2970
RJOM 231112Z 32005KT 4500 -SHRA BR FEW006 SCT015 BKN020 19/19 Q1005 RMK 1ST006 3CU015 6CU020 A2969
RJOM 231100Z 32004KT 280V340 7000 -SHRA FEW006 SCT015 BKN020 19/19 Q1005
RJOM 231050Z 32005KT 5000 -SHRA BR FEW006 SCT015 BKN020 19/19 Q1005 RMK 1ST006 3CU015 5CU020 A2968
RJOM 231032Z 30003KT 4500 -SHRA BR FEW008 BKN020 BKN050 20/18 Q1004 RMK 1ST008 5CU020 7SC050 A2966
RJOM 231000Z 14004KT 9999 VCSH FEW010 SCT025 BKN040 20/18 Q1004
RJOM 230900Z 27002KT 9999 FEW010 SCT025 BKN040 20/18 Q1005
RJOM 230800Z 28005KT 9999 FEW002 SCT030 BKN040 20/18 Q1005
RJOM 230700Z 26004KT 9999 FEW010 SCT040 BKN050 20/18 Q1004
RJOM 230600Z 23004KT 160V270 9999 FEW008 SCT050 BKN100 20/18 Q1004
RJOM 230500Z 22007KT 9999 FEW007 SCT030 BKN100 20/17 Q1004
RJOM 230400Z 24006KT 210V290 9999 FEW004 SCT030 BKN100 21/18 Q1004
RJOM 230300Z 29009KT 9999 -RA FEW007 SCT045 BKN070 20/18 Q1005
RJOM 230200Z 14004KT 7000 -RA FEW007 SCT045 BKN070 19/17 Q1005
RJOM 230120Z 15008KT 120V190 6000 -RA FEW007 SCT050 BKN080 19/17 Q1005 RMK 1ST007 4SC050 6AC080 A2970
RJOM 230100Z 20003KT 160V230 4000 -RA BR FEW015 SCT050 BKN070 20/19 Q1005
RJOM 230045Z VRB01KT 4000 -RA BR FEW015 SCT050 BKN070 20/19 Q1005 RMK 1CU015 4SC050 6AC070 A2970
RJOM 230000Z 34005KT 7000 -RA FEW015 SCT050 BKN090 21/19 Q1005
RJOM 222300Z VRB02KT 9999 -RA FEW025 SCT050 BKN070 21/17 Q1004
RJOM 222200Z 09004KT 040V130 9999 FEW010 SCT060 BKN090 20/17 Q1004
RJOM 222110Z 11009KT 9999 -RA FEW010 SCT050 BKN080 21/18 Q1004 RMK 1ST010 3SC050 5AC080 A2967
RJOM 221200Z VRB01KT 9999 FEW035 SCT180 BKN/// 23/20 Q1009
RJOM 221100Z 26003KT 9999 FEW035 BKN/// 23/20 Q1008
RJOM 221000Z VRB02KT 9999 FEW035 BKN/// 23/20 Q1008
RJOM 220900Z 22003KT 180V260 9999 FEW035 BKN/// 24/20 Q1008
RJOM 220800Z 24005KT 9999 FEW030 BKN/// 25/20 Q1007
RJOM 220700Z 23007KT 9999 FEW030 BKN/// 25/21 Q1007
RJOM 220600Z 24006KT 9999 FEW030 BKN/// 24/22 Q1007
RJOM 220500Z 28007KT 9999 FEW030 BKN/// 24/21 Q1007
RJOM 220400Z 28006KT 9999 FEW025 SCT/// 24/20 Q1008
RJOM 220300Z 31005KT 9999 FEW025 SCT/// 24/20 Q1009
RJOM 220200Z 32007KT 9999 FEW025 BKN/// 23/20 Q1009
RJOM 220100Z 32007KT 9000 FEW025 SCT/// 23/20 Q1010
RJOM 220000Z 33006KT 9999 FEW025 BKN/// 22/20 Q1010
RJOM 212300Z 34004KT 9999 FEW025 BKN/// 22/19 Q1010
RJOM 212200Z VRB03KT 9999 FEW025 BKN/// 21/18 Q1010
RJOM 212110Z VRB02KT 9999 FEW025 BKN/// 20/17 Q1009 RMK 1CU025 A2981
RJOM 211200Z 11004KT 9999 FEW035 23/19 Q1007
RJOM 211100Z VRB01KT 9999 FEW035 SCT/// 24/18 Q1007
RJOM 211000Z VRB02KT 9999 FEW035 BKN/// 23/17 Q1007
RJOM 210900Z 20004KT 9999 FEW035 BKN/// 24/17 Q1006
RJOM 210800Z 20004KT 9999 FEW025 BKN/// 24/19 Q1006